Time,TemperatureF,DewpointF,PressureIn,WindDirection,WindDirectionDegrees,WindSpeedMPH,WindSpeedGustMPH,Humidity,HourlyPrecipIn,Conditions,Clouds,dailyrainin,SoftwareType,DateUTC
2013-07-16 00:01:00,59.8,45.4,29.89,NNE,25,0.0,0.0,59,0.00,,,0.00,LWC V2.00 B2112,2013-07-16 07:01:00,
2013-07-16 00:06:00,59.6,-99.9,29.89,West,263,1.0,4.0,-999,0.00,,,0.00,LWC V2.00 B2112,2013-07-16 07:06:00,
2013-07-16 00:11:00,59.6,44.3,29.89,West,264,0.0,4.0,57,0.00,,,0.00,LWC V2.00 B2112,2013-07-16 07:11:00,
2013-07-16 00:16:00,59.9,44.6,29.89,North,0,0.0,7.0,57,0.00,,,0.00,LWC V2.00 B2112,2013-07-16 07:16:00,
2013-07-16 00:21:00,60.4,43.7,29.89,North,0,0.0,0.0,54,0.00,,,0.00,LWC V2.00 B2112,2013-07-16 07:21:00,
2013-07-16 00:26:00,60.4,45.1,29.89,West,268,2.0,4.0,57,0.00,,,0.00,LWC V2.00 B2112,2013-07-16 07:26:00,
2013-07-16 00:31:00,60.5,43.8,29.89,West,270,2.0,2.0,54,0.00,,,0.00,LWC V2.00 B2112,2013-07-16 07:31:00,
2013-07-16 00:36:00,60.9,44.1,29.89,NW,323,2.0,6.0,54,0.00,,,0.00,LWC V2.00 B2112,2013-07-16 07:36:00,
2013-07-16 00:41:00,60.9,44.6,29.89,NNW,332,0.0,0.0,55,0.00,,,0.00,LWC V2.00 B2112,2013-07-16 07:41:00,
2013-07-16 00:46:00,60.4,44.2,29.90,NNW,332,0.0,1.0,55,0.00,,,0.00,LWC V2.00 B2112,2013-07-16 07:46:00,
2013-07-16 00:51:00,60.4,43.7,29.90,WNW,295,2.0,6.0,54,0.00,,,0.00,LWC V2.00 B2112,2013-07-16 07:51:00,
2013-07-16 00:56:00,60.4,43.2,29.90,WNW,288,4.0,6.0,53,0.00,,,0.00,LWC V2.00 B2112,2013-07-16 07:56:00,
2013-07-16 01:01:00,60.4,44.6,29.90,West,278,0.0,2.0,56,0.00,,,0.00,LWC V2.00 B2112,2013-07-16 08:01:00,
2013-07-16 01:06:00,59.8,45.4,29.90,West,278,0.0,0.0,59,0.00,,,0.00,LWC V2.00 B2112,2013-07-16 08:06:00,
2013-07-16 01:11:00,59.3,44.1,29.90,West,278,0.0,0.0,57,0.00,,,0.00,LWC V2.00 B2112,2013-07-16 08:11:00,
2013-07-16 01:16:00,58.6,44.8,29.90,West,281,1.0,4.0,60,0.00,,,0.00,LWC V2.00 B2112,2013-07-16 08:16:00,
2013-07-16 01:21:00,58.1,45.1,29.90,West,281,2.0,2.0,62,0.00,,,0.00,LWC V2.00 B2112,2013-07-16 08:21:00,
2013-07-16 01:26:00,58.1,43.8,29.90,West,281,1.0,4.0,59,0.00,,,0.00,LWC V2.00 B2112,2013-07-16 08:26:00,
2013-07-16 01:29:00,58.4,43.2,29.91,WNW,282,4.0,4.0,57,0.00,,,0.00,LWC V2.00 B2112,2013-07-16 08:29:00,
2013-07-16 01:34:00,59.0,44.2,29.91,WNW,285,2.0,4.0,58,0.00,,,0.00,LWC V2.00 B2112,2013-07-16 08:34:00,
2013-07-16 01:39:00,59.2,42.6,29.91,WNW,282,4.0,6.0,54,0.00,,,0.00,LWC V2.00 B2112,2013-07-16 08:39:00,
2013-07-16 01:44:00,59.2,44.0,29.90,WNW,285,0.0,0.0,57,0.00,,,0.00,LWC V2.00 B2112,2013-07-16 08:44:00,
2013-07-16 01:49:00,58.3,44.5,29.90,WNW,285,1.0,4.0,60,0.00,,,0.00,LWC V2.00 B2112,2013-07-16 08:49:00,
2013-07-16 01:54:00,58.0,43.8,29.90,WNW,285,0.0,6.0,59,0.00,,,0.00,LWC V2.00 B2112,2013-07-16 08:54:00,
2013-07-16 01:59:00,58.0,43.8,29.91,NW,308,6.0,7.0,59,0.00,,,0.00,LWC V2.00 B2112,2013-07-16 08:59:00,
2013-07-16 02:04:00,58.9,43.7,29.91,West,278,8.0,8.0,57,0.00,,,0.00,LWC V2.00 B2112,2013-07-16 09:04:00,
2013-07-16 02:09:00,58.6,43.4,29.91,West,278,4.0,6.0,57,0.00,,,0.00,LWC V2.00 B2112,2013-07-16 09:09:00,
2013-07-16 02:14:00,58.9,42.8,29.90,West,272,4.0,6.0,55,0.00,,,0.00,LWC V2.00 B2112,2013-07-16 09:14:00,
2013-07-16 02:19:00,58.3,43.1,29.90,West,275,0.0,2.0,57,0.00,,,0.00,LWC V2.00 B2112,2013-07-16 09:19:00,
2013-07-16 02:24:00,58.3,42.7,29.90,NW,304,2.0,6.0,56,0.00,,,0.00,LWC V2.00 B2112,2013-07-16 09:24:00,
2013-07-16 02:29:00,58.4,42.8,29.90,West,274,7.0,7.0,56,0.00,,,0.00,LWC V2.00 B2112,2013-07-16 09:29:00,
2013-07-16 02:34:00,58.4,42.8,29.90,West,270,6.0,6.0,56,0.00,,,0.00,LWC V2.00 B2112,2013-07-16 09:34:00,
2013-07-16 02:39:00,58.3,42.2,29.90,West,277,4.0,7.0,55,0.00,,,0.00,LWC V2.00 B2112,2013-07-16 09:39:00,
2013-07-16 02:44:00,58.0,42.9,29.90,West,274,4.0,4.0,57,0.00,,,0.00,LWC V2.00 B2112,2013-07-16 09:44:00,
2013-07-16 02:49:00,58.0,42.9,29.90,WNW,298,6.0,8.0,57,0.00,,,0.00,LWC V2.00 B2112,2013-07-16 09:49:00,
2013-07-16 02:54:00,57.8,43.6,29.90,West,280,2.0,2.0,59,0.00,,,0.00,LWC V2.00 B2112,2013-07-16 09:54:00,
2013-07-16 02:59:00,57.5,43.7,29.90,West,278,0.0,2.0,60,0.00,,,0.00,LWC V2.00 B2112,2013-07-16 09:59:00,
2013-07-16 03:04:00,57.3,42.2,29.90,West,275,4.0,7.0,57,0.00,,,0.00,LWC V2.00 B2112,2013-07-16 10:04:00,
2013-07-16 03:09:00,57.3,43.1,29.90,West,271,0.0,2.0,59,0.00,,,0.00,LWC V2.00 B2112,2013-07-16 10:09:00,
2013-07-16 03:14:00,57.0,43.7,29.90,West,271,0.0,4.0,61,0.00,,,0.00,LWC V2.00 B2112,2013-07-16 10:14:00,
2013-07-16 03:19:00,56.5,42.8,29.90,West,271,0.0,0.0,60,0.00,,,0.00,LWC V2.00 B2112,2013-07-16 10:19:00,
2013-07-16 03:24:00,56.0,44.0,29.90,West,271,0.0,4.0,64,0.00,,,0.00,LWC V2.00 B2112,2013-07-16 10:24:00,
2013-07-16 03:29:00,56.3,42.6,29.90,West,272,7.0,7.0,60,0.00,,,0.00,LWC V2.00 B2112,2013-07-16 10:29:00,
2013-07-16 03:34:00,56.7,43.0,29.90,WNW,291,7.0,8.0,60,0.00,,,0.00,LWC V2.00 B2112,2013-07-16 10:34:00,
2013-07-16 03:39:00,56.7,42.5,29.90,WNW,291,2.0,6.0,59,0.00,,,0.00,LWC V2.00 B2112,2013-07-16 10:39:00,
2013-07-16 03:44:00,56.6,43.3,29.90,West,261,0.0,2.0,61,0.00,,,0.00,LWC V2.00 B2112,2013-07-16 10:44:00,
2013-07-16 03:49:00,56.0,42.7,29.90,NNW,328,0.0,0.0,61,0.00,,,0.00,LWC V2.00 B2112,2013-07-16 10:49:00,
2013-07-16 03:54:00,55.1,42.7,29.90,NNW,328,0.0,0.0,63,0.00,,,0.00,LWC V2.00 B2112,2013-07-16 10:54:00,
2013-07-16 03:59:00,55.0,43.5,29.90,WNW,292,6.0,6.0,65,0.00,,,0.00,LWC V2.00 B2112,2013-07-16 10:59:00,
2013-07-16 04:04:00,55.6,42.8,29.90,WNW,288,4.0,6.0,62,0.00,,,0.00,LWC V2.00 B2112,2013-07-16 11:04:00,
2013-07-16 04:09:00,55.7,42.0,29.90,West,267,2.0,4.0,60,0.00,,,0.00,LWC V2.00 B2112,2013-07-16 11:09:00,
2013-07-16 04:14:00,55.4,43.0,29.91,WNW,294,0.0,4.0,63,0.00,,,0.00,LWC V2.00 B2112,2013-07-16 11:14:00,
2013-07-16 04:19:00,55.3,43.3,29.91,WNW,299,7.0,7.0,64,0.00,,,0.00,LWC V2.00 B2112,2013-07-16 11:19:00,
2013-07-16 04:24:00,55.3,43.3,29.91,West,281,2.0,7.0,64,0.00,,,0.00,LWC V2.00 B2112,2013-07-16 11:24:00,
2013-07-16 04:29:00,55.3,43.7,29.91,West,265,4.0,8.0,65,0.00,,,0.00,LWC V2.00 B2112,2013-07-16 11:29:00,
2013-07-16 04:34:00,55.1,42.7,29.91,West,280,1.0,2.0,63,0.00,,,0.00,LWC V2.00 B2112,2013-07-16 11:34:00,
2013-07-16 04:39:00,55.1,42.7,29.91,NNW,342,6.0,6.0,63,0.00,,,0.00,LWC V2.00 B2112,2013-07-16 11:39:00,
2013-07-16 04:44:00,55.4,42.2,29.91,NW,309,6.0,9.0,61,0.00,,,0.00,LWC V2.00 B2112,2013-07-16 11:44:00,
2013-07-16 04:49:00,55.6,42.4,29.91,NW,313,9.0,9.0,61,0.00,,,0.00,LWC V2.00 B2112,2013-07-16 11:49:00,
2013-07-16 04:54:00,55.6,42.4,29.91,NW,311,4.0,10.0,61,0.00,,,0.00,LWC V2.00 B2112,2013-07-16 11:54:00,
2013-07-16 04:59:00,55.0,42.6,29.91,NW,318,4.0,6.0,63,0.00,,,0.00,LWC V2.00 B2112,2013-07-16 11:59:00,
2013-07-16 05:04:00,54.5,43.8,29.91,WNW,282,4.0,6.0,67,0.00,,,0.00,LWC V2.00 B2112,2013-07-16 12:04:00,
2013-07-16 05:09:00,54.4,43.7,29.91,WNW,298,6.0,6.0,67,0.00,,,0.00,LWC V2.00 B2112,2013-07-16 12:09:00,
2013-07-16 05:14:00,54.2,42.3,29.91,WNW,291,4.0,7.0,64,0.00,,,0.00,LWC V2.00 B2112,2013-07-16 12:14:00,
2013-07-16 05:19:00,54.1,42.6,29.91,WNW,302,4.0,6.0,65,0.00,,,0.00,LWC V2.00 B2112,2013-07-16 12:19:00,
2013-07-16 05:24:00,54.5,41.7,29.91,NNW,336,4.0,9.0,62,0.00,,,0.00,LWC V2.00 B2112,2013-07-16 12:24:00,
2013-07-16 05:29:00,55.0,42.2,29.91,North,353,7.0,8.0,62,0.00,,,0.00,LWC V2.00 B2112,2013-07-16 12:29:00,
2013-07-16 05:34:00,54.5,41.7,29.91,WNW,299,4.0,8.0,62,0.00,,,0.00,LWC V2.00 B2112,2013-07-16 12:34:00,
2013-07-16 05:39:00,54.4,42.5,29.91,WNW,284,8.0,10.0,64,0.00,,,0.00,LWC V2.00 B2112,2013-07-16 12:39:00,
2013-07-16 05:44:00,54.5,42.2,29.91,WNW,282,4.0,9.0,63,0.00,,,0.00,LWC V2.00 B2112,2013-07-16 12:44:00,
2013-07-16 05:49:00,54.1,41.8,29.91,West,267,9.0,9.0,63,0.00,,,0.00,LWC V2.00 B2112,2013-07-16 12:49:00,
2013-07-16 05:54:00,53.9,42.0,29.91,West,275,4.0,7.0,64,0.00,,,0.00,LWC V2.00 B2112,2013-07-16 12:54:00,
2013-07-16 05:59:00,53.6,42.9,29.92,WNW,291,0.0,2.0,67,0.00,,,0.00,LWC V2.00 B2112,2013-07-16 12:59:00,
2013-07-16 06:04:00,53.8,42.7,29.92,WNW,287,7.0,8.0,66,0.00,,,0.00,LWC V2.00 B2112,2013-07-16 13:04:00,
2013-07-16 06:09:00,54.1,41.8,29.92,WNW,292,8.0,11.0,63,0.00,,,0.00,LWC V2.00 B2112,2013-07-16 13:09:00,
2013-07-16 06:14:00,54.2,42.3,29.92,WNW,288,4.0,6.0,64,0.00,,,0.00,LWC V2.00 B2112,2013-07-16 13:14:00,
2013-07-16 06:19:00,53.8,42.3,29.92,WNW,298,6.0,7.0,65,0.00,,,0.00,LWC V2.00 B2112,2013-07-16 13:19:00,
2013-07-16 06:24:00,53.8,42.3,29.92,WNW,299,8.0,9.0,65,0.00,,,0.00,LWC V2.00 B2112,2013-07-16 13:24:00,
2013-07-16 06:29:00,53.9,42.4,29.92,NW,305,2.0,9.0,65,0.00,,,0.00,LWC V2.00 B2112,2013-07-16 13:29:00,
2013-07-16 06:34:00,54.1,43.0,29.92,WNW,285,6.0,7.0,66,0.00,,,0.00,LWC V2.00 B2112,2013-07-16 13:34:00,
2013-07-16 06:39:00,53.9,43.6,29.92,WSW,251,4.0,4.0,68,0.00,,,0.00,LWC V2.00 B2112,2013-07-16 13:39:00,
2013-07-16 06:44:00,53.9,43.2,29.92,NW,305,7.0,8.0,67,0.00,,,0.00,LWC V2.00 B2112,2013-07-16 13:44:00,
2013-07-16 06:49:00,54.2,41.9,29.92,NW,313,4.0,8.0,63,0.00,,,0.00,LWC V2.00 B2112,2013-07-16 13:49:00,
2013-07-16 06:54:00,54.7,44.0,29.92,WNW,289,7.0,8.0,67,0.00,,,0.00,LWC V2.00 B2112,2013-07-16 13:54:00,
2013-07-16 06:59:00,54.7,44.0,29.92,West,267,4.0,6.0,67,0.00,,,0.00,LWC V2.00 B2112,2013-07-16 13:59:00,
2013-07-16 07:04:00,54.2,43.9,29.92,West,271,0.0,0.0,68,0.00,,,0.00,LWC V2.00 B2112,2013-07-16 14:04:00,
2013-07-16 07:09:00,54.5,43.8,29.92,West,271,6.0,6.0,67,0.00,,,0.00,LWC V2.00 B2112,2013-07-16 14:09:00,
2013-07-16 07:14:00,55.9,42.6,29.92,WNW,301,4.0,7.0,61,0.00,,,0.00,LWC V2.00 B2112,2013-07-16 14:14:00,
2013-07-16 07:19:00,56.9,44.0,29.92,NW,315,2.0,7.0,62,0.00,,,0.00,LWC V2.00 B2112,2013-07-16 14:19:00,
2013-07-16 07:24:00,58.0,42.9,29.92,NW,320,6.0,9.0,57,0.00,,,0.00,LWC V2.00 B2112,2013-07-16 14:24:00,
2013-07-16 07:29:00,58.6,43.9,29.91,NW,312,1.0,4.0,58,0.00,,,0.00,LWC V2.00 B2112,2013-07-16 14:29:00,
2013-07-16 07:34:00,59.0,44.7,29.91,WNW,289,1.0,1.0,59,0.00,,,0.00,LWC V2.00 B2112,2013-07-16 14:34:00,
2013-07-16 07:39:00,59.6,43.4,29.91,WNW,294,0.0,7.0,55,0.00,,,0.00,LWC V2.00 B2112,2013-07-16 14:39:00,
2013-07-16 07:44:00,60.2,44.0,29.90,West,274,2.0,7.0,55,0.00,,,0.00,LWC V2.00 B2112,2013-07-16 14:44:00,
2013-07-16 07:49:00,60.9,43.2,29.90,WSW,241,1.0,4.0,52,0.00,,,0.00,LWC V2.00 B2112,2013-07-16 14:49:00,
2013-07-16 07:54:00,61.5,46.1,29.90,West,280,0.0,7.0,57,0.00,,,0.00,LWC V2.00 B2112,2013-07-16 14:54:00,
2013-07-16 07:59:00,62.0,45.6,29.90,West,280,1.0,1.0,55,0.00,,,0.00,LWC V2.00 B2112,2013-07-16 14:59:00,
2013-07-16 08:04:00,62.6,44.7,29.90,South,178,0.0,1.0,52,0.00,,,0.00,LWC V2.00 B2112,2013-07-16 15:04:00,
2013-07-16 08:09:00,62.7,47.2,29.90,WNW,288,0.0,6.0,57,0.00,,,0.00,LWC V2.00 B2112,2013-07-16 15:09:00,
2013-07-16 08:14:00,63.2,44.8,29.91,WNW,288,1.0,2.0,51,0.00,,,0.00,LWC V2.00 B2112,2013-07-16 15:14:00,
2013-07-16 08:19:00,63.9,45.4,29.91,WNW,291,4.0,8.0,51,0.00,,,0.00,LWC V2.00 B2112,2013-07-16 15:19:00,
2013-07-16 08:24:00,64.5,45.4,29.91,WNW,289,0.0,2.0,50,0.00,,,0.00,LWC V2.00 B2112,2013-07-16 15:24:00,
2013-07-16 08:29:00,65.3,45.6,29.90,WNW,292,1.0,1.0,49,0.00,,,0.00,LWC V2.00 B2112,2013-07-16 15:29:00,
2013-07-16 08:34:00,65.8,43.9,29.90,NW,311,4.0,6.0,45,0.00,,,0.00,LWC V2.00 B2112,2013-07-16 15:34:00,
2013-07-16 08:39:00,66.3,43.7,29.90,NNW,336,0.0,7.0,44,0.00,,,0.00,LWC V2.00 B2112,2013-07-16 15:39:00,
2013-07-16 08:44:00,67.1,43.8,29.89,WNW,291,4.0,7.0,43,0.00,,,0.00,LWC V2.00 B2112,2013-07-16 15:44:00,
2013-07-16 08:49:00,67.3,44.6,29.89,NNW,329,7.0,7.0,44,0.00,,,0.00,LWC V2.00 B2112,2013-07-16 15:49:00,
2013-07-16 08:54:00,67.6,44.3,29.89,NW,311,1.0,6.0,43,0.00,,,0.00,LWC V2.00 B2112,2013-07-16 15:54:00,
2013-07-16 08:59:00,68.1,44.1,29.89,NW,311,0.0,0.0,42,0.00,,,0.00,LWC V2.00 B2112,2013-07-16 15:59:00,
2013-07-16 09:04:00,69.3,48.2,29.89,NW,311,0.0,1.0,47,0.00,,,0.00,LWC V2.00 B2112,2013-07-16 16:04:00,
2013-07-16 09:09:00,68.9,49.5,29.89,North,359,0.0,1.0,50,0.00,,,0.00,LWC V2.00 B2112,2013-07-16 16:09:00,
2013-07-16 09:14:00,69.4,47.1,29.88,North,359,0.0,0.0,45,0.00,,,0.00,LWC V2.00 B2112,2013-07-16 16:14:00,
2013-07-16 09:19:00,69.9,50.9,29.88,North,359,0.0,0.0,51,0.00,,,0.00,LWC V2.00 B2112,2013-07-16 16:19:00,
2013-07-16 09:24:00,70.8,49.0,29.88,North,356,1.0,1.0,46,0.00,,,0.00,LWC V2.00 B2112,2013-07-16 16:24:00,
2013-07-16 09:29:00,71.3,48.2,29.88,North,0,0.0,2.0,44,0.00,,,0.00,LWC V2.00 B2112,2013-07-16 16:29:00,
2013-07-16 09:34:00,71.6,47.9,29.88,North,1,0.0,2.0,43,0.00,,,0.00,LWC V2.00 B2112,2013-07-16 16:34:00,
2013-07-16 09:39:00,72.0,50.7,29.88,North,3,0.0,1.0,47,0.00,,,0.00,LWC V2.00 B2112,2013-07-16 16:39:00,
2013-07-16 09:44:00,72.3,49.2,29.87,North,3,0.0,0.0,44,0.00,,,0.00,LWC V2.00 B2112,2013-07-16 16:44:00,
2013-07-16 09:49:00,72.7,49.5,29.87,North,3,0.0,1.0,44,0.00,,,0.00,LWC V2.00 B2112,2013-07-16 16:49:00,
2013-07-16 09:54:00,72.8,49.0,29.87,NNE,20,0.0,4.0,43,0.00,,,0.00,LWC V2.00 B2112,2013-07-16 16:54:00,
2013-07-16 09:59:00,73.0,51.0,29.86,NNE,21,0.0,1.0,46,0.00,,,0.00,LWC V2.00 B2112,2013-07-16 16:59:00,
2013-07-16 10:04:00,73.3,51.8,29.86,NNE,21,1.0,1.0,47,0.00,,,0.00,LWC V2.00 B2112,2013-07-16 17:04:00,
2013-07-16 10:09:00,73.7,49.2,29.86,NNE,21,0.0,0.0,42,0.00,,,0.00,LWC V2.00 B2112,2013-07-16 17:09:00,
2013-07-16 10:14:00,74.6,48.0,29.85,SSW,196,0.0,4.0,39,0.00,,,0.00,LWC V2.00 B2112,2013-07-16 17:14:00,
2013-07-16 10:19:00,74.7,50.7,29.85,SSE,157,0.0,4.0,43,0.00,,,0.00,LWC V2.00 B2112,2013-07-16 17:19:00,
2013-07-16 10:24:00,74.4,47.8,29.85,SE,138,0.0,1.0,39,0.00,,,0.00,LWC V2.00 B2112,2013-07-16 17:24:00,
2013-07-16 10:29:00,75.1,47.0,29.85,SE,144,0.0,2.0,37,0.00,,,0.00,LWC V2.00 B2112,2013-07-16 17:29:00,
2013-07-16 10:34:00,75.3,50.6,29.85,ESE,112,0.0,4.0,42,0.00,,,0.00,LWC V2.00 B2112,2013-07-16 17:34:00,
2013-07-16 10:39:00,75.8,49.7,29.85,South,175,0.0,1.0,40,0.00,,,0.00,LWC V2.00 B2112,2013-07-16 17:39:00,
2013-07-16 10:44:00,75.4,45.1,29.85,ESE,112,0.0,2.0,34,0.00,,,0.00,LWC V2.00 B2112,2013-07-16 17:44:00,
2013-07-16 10:49:00,75.6,44.5,29.85,ESE,119,0.0,4.0,33,0.00,,,0.00,LWC V2.00 B2112,2013-07-16 17:49:00,
2013-07-16 10:54:00,76.1,47.2,29.85,ESE,117,0.0,1.0,36,0.00,,,0.00,LWC V2.00 B2112,2013-07-16 17:54:00,
2013-07-16 10:59:00,76.3,51.5,29.85,ESE,112,0.0,0.0,42,0.00,,,0.00,LWC V2.00 B2112,2013-07-16 17:59:00,
2013-07-16 11:04:00,76.3,50.8,29.85,ESE,103,0.0,6.0,41,0.00,,,0.00,LWC V2.00 B2112,2013-07-16 18:04:00,
2013-07-16 11:09:00,76.7,46.2,29.85,SE,127,2.0,6.0,34,0.00,,,0.00,LWC V2.00 B2112,2013-07-16 18:09:00,
2013-07-16 11:14:00,76.7,47.0,29.84,SE,124,0.0,2.0,35,0.00,,,0.00,LWC V2.00 B2112,2013-07-16 18:14:00,
2013-07-16 11:19:00,76.8,45.5,29.84,SE,124,0.0,4.0,33,0.00,,,0.00,LWC V2.00 B2112,2013-07-16 18:19:00,
2013-07-16 11:24:00,77.4,44.4,29.84,SE,124,0.0,0.0,31,0.00,,,0.00,LWC V2.00 B2112,2013-07-16 18:24:00,
2013-07-16 11:29:00,77.6,46.2,29.83,SE,124,0.0,2.0,33,0.00,,,0.00,LWC V2.00 B2112,2013-07-16 18:29:00,
2013-07-16 11:34:00,77.9,46.5,29.83,ESE,114,1.0,2.0,33,0.00,,,0.00,LWC V2.00 B2112,2013-07-16 18:34:00,
2013-07-16 11:39:00,77.9,49.5,29.83,ESE,110,1.0,2.0,37,0.00,,,0.00,LWC V2.00 B2112,2013-07-16 18:39:00,
2013-07-16 11:44:00,78.1,42.3,29.83,ESE,113,0.0,1.0,28,0.00,,,0.00,LWC V2.00 B2112,2013-07-16 18:44:00,
2013-07-16 11:49:00,78.3,42.5,29.83,SSE,164,2.0,4.0,28,0.00,,,0.00,LWC V2.00 B2112,2013-07-16 18:49:00,
2013-07-16 11:54:00,78.8,49.6,29.83,ESE,116,4.0,4.0,36,0.00,,,0.00,LWC V2.00 B2112,2013-07-16 18:54:00,
2013-07-16 11:59:00,79.0,44.0,29.83,SE,134,7.0,7.0,29,0.00,,,0.00,LWC V2.00 B2112,2013-07-16 18:59:00,
2013-07-16 12:04:00,79.2,43.3,29.83,ESE,121,1.0,6.0,28,0.00,,,0.00,LWC V2.00 B2112,2013-07-16 19:04:00,
2013-07-16 12:09:00,79.0,40.2,29.83,ESE,112,0.0,7.0,25,0.00,,,0.00,LWC V2.00 B2112,2013-07-16 19:09:00,
2013-07-16 12:14:00,79.0,43.1,29.83,East,90,1.0,4.0,28,0.00,,,0.00,LWC V2.00 B2112,2013-07-16 19:14:00,
2013-07-16 12:19:00,79.6,44.5,29.83,East,100,0.0,0.0,29,0.00,,,0.00,LWC V2.00 B2112,2013-07-16 19:19:00,
2013-07-16 12:24:00,79.6,43.6,29.83,ESE,119,0.0,0.0,28,0.00,,,0.00,LWC V2.00 B2112,2013-07-16 19:24:00,
2013-07-16 12:29:00,80.3,45.1,29.82,SE,128,1.0,6.0,29,0.00,,,0.00,LWC V2.00 B2112,2013-07-16 19:29:00,
2013-07-16 12:34:00,81.2,39.9,29.82,SW,217,2.0,4.0,23,0.00,,,0.00,LWC V2.00 B2112,2013-07-16 19:34:00,
2013-07-16 12:39:00,81.6,42.3,29.82,SW,219,0.0,1.0,25,0.00,,,0.00,LWC V2.00 B2112,2013-07-16 19:39:00,
2013-07-16 12:44:00,81.4,45.1,29.82,East,92,2.0,4.0,28,0.00,,,0.00,LWC V2.00 B2112,2013-07-16 19:44:00,
2013-07-16 12:49:00,81.1,38.6,29.82,SE,127,1.0,6.0,22,0.00,,,0.00,LWC V2.00 B2112,2013-07-16 19:49:00,
2013-07-16 12:54:00,81.6,36.6,29.82,North,354,1.0,4.0,20,0.00,,,0.00,LWC V2.00 B2112,2013-07-16 19:54:00,
2013-07-16 12:59:00,82.0,40.5,29.82,SE,143,0.0,2.0,23,0.00,,,0.00,LWC V2.00 B2112,2013-07-16 19:59:00,
2013-07-16 13:04:00,82.6,36.1,29.82,SSW,195,0.0,1.0,19,0.00,,,0.00,LWC V2.00 B2112,2013-07-16 20:04:00,
2013-07-16 13:09:00,83.0,35.1,29.82,SSW,202,0.0,2.0,18,0.00,,,0.00,LWC V2.00 B2112,2013-07-16 20:09:00,
2013-07-16 13:14:00,83.8,34.3,29.81,NW,309,0.0,2.0,17,0.00,,,0.00,LWC V2.00 B2112,2013-07-16 20:14:00,
2013-07-16 13:19:00,83.8,39.7,29.81,NW,309,0.0,2.0,21,0.00,,,0.00,LWC V2.00 B2112,2013-07-16 20:19:00,
2013-07-16 13:24:00,83.4,35.4,29.81,East,100,0.0,2.0,18,0.00,,,0.00,LWC V2.00 B2112,2013-07-16 20:24:00,
2013-07-16 13:29:00,83.2,44.7,29.80,East,100,0.0,0.0,26,0.00,,,0.00,LWC V2.00 B2112,2013-07-16 20:29:00,
2013-07-16 13:34:00,82.8,38.8,29.80,ESE,120,1.0,2.0,21,0.00,,,0.00,LWC V2.00 B2112,2013-07-16 20:34:00,
2013-07-16 13:39:00,83.0,37.8,29.80,ESE,119,0.0,0.0,20,0.00,,,0.00,LWC V2.00 B2112,2013-07-16 20:39:00,
2013-07-16 13:44:00,83.8,38.4,29.79,ESE,119,0.0,4.0,20,0.00,,,0.00,LWC V2.00 B2112,2013-07-16 20:44:00,
2013-07-16 13:49:00,84.1,33.0,29.79,WNW,299,1.0,7.0,16,0.00,,,0.00,LWC V2.00 B2112,2013-07-16 20:49:00,
2013-07-16 13:54:00,84.1,37.4,29.79,WNW,299,0.0,1.0,19,0.00,,,0.00,LWC V2.00 B2112,2013-07-16 20:54:00,
2013-07-16 13:59:00,84.1,36.0,29.78,WSW,253,0.0,6.0,18,0.00,,,0.00,LWC V2.00 B2112,2013-07-16 20:59:00,
2013-07-16 14:04:00,84.5,31.8,29.78,SW,227,0.0,6.0,15,0.00,,,0.00,LWC V2.00 B2112,2013-07-16 21:04:00,
2013-07-16 14:09:00,84.5,34.9,29.78,West,263,2.0,4.0,17,0.00,,,0.00,LWC V2.00 B2112,2013-07-16 21:09:00,
2013-07-16 14:14:00,84.9,40.6,29.77,NW,313,4.0,4.0,21,0.00,,,0.00,LWC V2.00 B2112,2013-07-16 21:14:00,
2013-07-16 14:19:00,85.3,32.4,29.77,NW,323,6.0,7.0,15,0.00,,,0.00,LWC V2.00 B2112,2013-07-16 21:19:00,
2013-07-16 14:24:00,85.5,38.5,29.77,WNW,299,2.0,9.0,19,0.00,,,0.00,LWC V2.00 B2112,2013-07-16 21:24:00,
2013-07-16 14:29:00,85.9,36.0,29.76,NNW,337,6.0,6.0,17,0.00,,,0.00,LWC V2.00 B2112,2013-07-16 21:29:00,
2013-07-16 14:34:00,85.9,34.5,29.76,WNW,295,0.0,2.0,16,0.00,,,0.00,LWC V2.00 B2112,2013-07-16 21:34:00,
2013-07-16 14:39:00,85.7,38.7,29.76,SW,232,0.0,4.0,19,0.00,,,0.00,LWC V2.00 B2112,2013-07-16 21:39:00,
2013-07-16 14:44:00,86.1,40.3,29.76,SW,216,0.0,2.0,20,0.00,,,0.00,LWC V2.00 B2112,2013-07-16 21:44:00,
2013-07-16 14:49:00,86.3,39.2,29.76,WSW,240,4.0,4.0,19,0.00,,,0.00,LWC V2.00 B2112,2013-07-16 21:49:00,
2013-07-16 14:54:00,86.5,36.5,29.76,SW,227,2.0,6.0,17,0.00,,,0.00,LWC V2.00 B2112,2013-07-16 21:54:00,
2013-07-16 14:59:00,87.2,32.2,29.75,SW,227,0.0,0.0,14,0.00,,,0.00,LWC V2.00 B2112,2013-07-16 21:59:00,
2013-07-16 15:04:00,87.8,34.4,29.75,North,354,0.0,0.0,15,0.00,,,0.00,LWC V2.00 B2112,2013-07-16 22:04:00,
2013-07-16 15:09:00,88.0,36.2,29.75,SW,227,0.0,1.0,16,0.00,,,0.00,LWC V2.00 B2112,2013-07-16 22:09:00,
2013-07-16 15:14:00,87.2,42.5,29.75,South,175,0.0,0.0,21,0.00,,,0.00,LWC V2.00 B2112,2013-07-16 22:14:00,
2013-07-16 15:19:00,86.5,43.1,29.75,ESE,102,0.0,0.0,22,0.00,,,0.00,LWC V2.00 B2112,2013-07-16 22:19:00,
2013-07-16 15:24:00,86.1,43.9,29.75,ESE,117,0.0,1.0,23,0.00,,,0.00,LWC V2.00 B2112,2013-07-16 22:24:00,
2013-07-16 15:29:00,86.7,35.1,29.75,South,179,1.0,6.0,16,0.00,,,0.00,LWC V2.00 B2112,2013-07-16 22:29:00,
2013-07-16 15:34:00,86.7,38.1,29.75,SE,140,4.0,6.0,18,0.00,,,0.00,LWC V2.00 B2112,2013-07-16 22:34:00,
2013-07-16 15:39:00,86.1,37.6,29.75,SSE,154,1.0,6.0,18,0.00,,,0.00,LWC V2.00 B2112,2013-07-16 22:39:00,
2013-07-16 15:44:00,86.1,41.6,29.75,ESE,117,1.0,7.0,21,0.00,,,0.00,LWC V2.00 B2112,2013-07-16 22:44:00,
2013-07-16 15:49:00,86.1,37.6,29.75,ESE,117,0.0,4.0,18,0.00,,,0.00,LWC V2.00 B2112,2013-07-16 22:49:00,
2013-07-16 15:54:00,86.1,42.8,29.75,ESE,120,0.0,2.0,22,0.00,,,0.00,LWC V2.00 B2112,2013-07-16 22:54:00,
2013-07-16 15:59:00,85.5,37.1,29.74,ESE,120,0.0,0.0,18,0.00,,,0.00,LWC V2.00 B2112,2013-07-16 22:59:00,
2013-07-16 16:04:00,85.5,47.7,29.74,ESE,120,0.0,0.0,27,0.00,,,0.00,LWC V2.00 B2112,2013-07-16 23:04:00,
2013-07-16 16:09:00,85.1,48.3,29.74,ESE,120,0.0,1.0,28,0.00,,,0.00,LWC V2.00 B2112,2013-07-16 23:09:00,
2013-07-16 16:14:00,85.1,39.5,29.73,ESE,120,0.0,0.0,20,0.00,,,0.00,LWC V2.00 B2112,2013-07-16 23:14:00,
2013-07-16 16:19:00,85.9,42.6,29.73,ESE,120,0.0,1.0,22,0.00,,,0.00,LWC V2.00 B2112,2013-07-16 23:19:00,
2013-07-16 16:24:00,87.2,44.9,29.73,SW,215,2.0,6.0,23,0.00,,,0.00,LWC V2.00 B2112,2013-07-16 23:24:00,
2013-07-16 16:29:00,88.0,39.2,29.73,SW,220,0.0,0.0,18,0.00,,,0.00,LWC V2.00 B2112,2013-07-16 23:29:00,
2013-07-16 16:34:00,88.2,33.0,29.73,South,185,0.0,0.0,14,0.00,,,0.00,LWC V2.00 B2112,2013-07-16 23:34:00,
2013-07-16 16:39:00,89.3,32.0,29.73,South,186,2.0,2.0,13,0.00,,,0.00,LWC V2.00 B2112,2013-07-16 23:39:00,
2013-07-16 16:44:00,88.8,41.2,29.72,South,186,0.0,1.0,19,0.00,,,0.00,LWC V2.00 B2112,2013-07-16 23:44:00,
2013-07-16 16:49:00,88.2,37.9,29.72,South,179,0.0,0.0,17,0.00,,,0.00,LWC V2.00 B2112,2013-07-16 23:49:00,
2013-07-16 16:54:00,87.8,41.7,29.72,South,178,0.0,1.0,20,0.00,,,0.00,LWC V2.00 B2112,2013-07-16 23:54:00,
2013-07-16 16:59:00,85.1,51.9,29.72,South,178,0.0,1.0,32,0.00,,,0.00,LWC V2.00 B2112,2013-07-16 23:59:00,
2013-07-16 17:04:00,84.0,45.4,29.72,South,178,0.0,0.0,26,0.00,,,0.00,LWC V2.00 B2112,2013-07-17 00:04:00,
2013-07-16 17:09:00,83.4,51.2,29.72,South,178,0.0,0.0,33,0.00,,,0.00,LWC V2.00 B2112,2013-07-17 00:09:00,
2013-07-16 17:14:00,83.4,45.9,29.72,South,178,0.0,0.0,27,0.00,,,0.00,LWC V2.00 B2112,2013-07-17 00:14:00,
2013-07-16 17:19:00,83.8,56.2,29.72,South,178,0.0,0.0,39,0.00,,,0.00,LWC V2.00 B2112,2013-07-17 00:19:00,
2013-07-16 17:24:00,84.5,46.8,29.72,South,178,0.0,0.0,27,0.00,,,0.00,LWC V2.00 B2112,2013-07-17 00:24:00,
2013-07-16 17:29:00,84.1,56.4,29.71,South,178,0.0,0.0,39,0.00,,,0.00,LWC V2.00 B2112,2013-07-17 00:29:00,
2013-07-16 17:34:00,83.4,55.1,29.71,South,178,0.0,0.0,38,0.00,,,0.00,LWC V2.00 B2112,2013-07-17 00:34:00,
2013-07-16 17:39:00,82.4,52.7,29.71,South,178,0.0,0.0,36,0.00,,,0.00,LWC V2.00 B2112,2013-07-17 00:39:00,
2013-07-16 17:44:00,81.1,56.5,29.72,South,178,0.0,0.0,43,0.00,,,0.00,LWC V2.00 B2112,2013-07-17 00:44:00,
2013-07-16 17:49:00,79.9,54.7,29.72,South,178,0.0,0.0,42,0.00,,,0.00,LWC V2.00 B2112,2013-07-17 00:49:00,
2013-07-16 17:54:00,79.2,56.0,29.72,South,178,0.0,1.0,45,0.00,,,0.00,LWC V2.00 B2112,2013-07-17 00:54:00,
2013-07-16 17:59:00,78.6,50.8,29.72,South,178,0.0,0.0,38,0.00,,,0.00,LWC V2.00 B2112,2013-07-17 00:59:00,
2013-07-16 18:04:00,79.2,52.1,29.72,South,178,0.0,0.0,39,0.00,,,0.00,LWC V2.00 B2112,2013-07-17 01:04:00,
2013-07-16 18:09:00,79.2,58.4,29.72,South,178,0.0,0.0,49,0.00,,,0.00,LWC V2.00 B2112,2013-07-17 01:09:00,
2013-07-16 18:14:00,78.6,55.5,29.70,South,178,0.0,0.0,45,0.00,,,0.00,LWC V2.00 B2112,2013-07-17 01:14:00,
2013-07-16 18:19:00,78.3,58.7,29.70,South,178,0.0,0.0,51,0.00,,,0.00,LWC V2.00 B2112,2013-07-17 01:19:00,
2013-07-16 18:24:00,78.3,58.1,29.70,South,178,0.0,0.0,50,0.00,,,0.00,LWC V2.00 B2112,2013-07-17 01:24:00,
2013-07-16 18:29:00,78.6,61.6,29.71,South,178,0.0,1.0,56,0.00,,,0.00,LWC V2.00 B2112,2013-07-17 01:29:00,
2013-07-16 18:34:00,79.9,64.3,29.71,South,178,0.0,0.0,59,0.00,,,0.00,LWC V2.00 B2112,2013-07-17 01:34:00,
2013-07-16 18:39:00,81.2,58.4,29.71,South,178,0.0,0.0,46,0.00,,,0.00,LWC V2.00 B2112,2013-07-17 01:39:00,
2013-07-16 18:44:00,81.2,60.8,29.71,South,178,0.0,0.0,50,0.00,,,0.00,LWC V2.00 B2112,2013-07-17 01:44:00,
2013-07-16 18:49:00,80.7,60.3,29.71,South,178,0.0,0.0,50,0.00,,,0.00,LWC V2.00 B2112,2013-07-17 01:49:00,
2013-07-16 18:54:00,79.9,61.7,29.71,South,178,0.0,0.0,54,0.00,,,0.00,LWC V2.00 B2112,2013-07-17 01:54:00,
2013-07-16 18:59:00,79.6,61.5,29.70,South,178,0.0,0.0,54,0.00,,,0.00,LWC V2.00 B2112,2013-07-17 01:59:00,
2013-07-16 19:04:00,79.0,62.4,29.70,South,178,0.0,0.0,57,0.00,,,0.00,LWC V2.00 B2112,2013-07-17 02:04:00,
2013-07-16 19:09:00,78.5,62.0,29.70,South,178,0.0,0.0,57,0.00,,,0.00,LWC V2.00 B2112,2013-07-17 02:09:00,
2013-07-16 19:14:00,78.1,59.6,29.71,South,178,0.0,0.0,53,0.00,,,0.00,LWC V2.00 B2112,2013-07-17 02:14:00,
2013-07-16 19:19:00,77.6,59.1,29.71,South,178,0.0,1.0,53,0.00,,,0.00,LWC V2.00 B2112,2013-07-17 02:19:00,
2013-07-16 19:24:00,77.7,61.7,29.71,South,178,0.0,1.0,58,0.00,,,0.00,LWC V2.00 B2112,2013-07-17 02:24:00,
2013-07-16 19:29:00,77.9,58.3,29.70,SW,232,2.0,2.0,51,0.00,,,0.00,LWC V2.00 B2112,2013-07-17 02:29:00,
2013-07-16 19:34:00,78.3,57.0,29.70,West,267,2.0,6.0,48,0.00,,,0.00,LWC V2.00 B2112,2013-07-17 02:34:00,
2013-07-16 19:39:00,78.8,53.1,29.70,West,267,0.0,1.0,41,0.00,,,0.00,LWC V2.00 B2112,2013-07-17 02:39:00,
2013-07-16 19:44:00,79.2,53.4,29.69,West,267,0.0,0.0,41,0.00,,,0.00,LWC V2.00 B2112,2013-07-17 02:44:00,
2013-07-16 19:49:00,77.7,52.1,29.69,West,267,0.0,0.0,41,0.00,,,0.00,LWC V2.00 B2112,2013-07-17 02:49:00,
2013-07-16 19:54:00,76.1,55.5,29.69,West,267,0.0,0.0,49,0.00,,,0.00,LWC V2.00 B2112,2013-07-17 02:54:00,
2013-07-16 19:59:00,75.8,55.3,29.70,West,267,0.0,0.0,49,0.00,,,0.00,LWC V2.00 B2112,2013-07-17 02:59:00,
2013-07-16 20:04:00,75.6,55.1,29.70,West,267,0.0,0.0,49,0.00,,,0.00,LWC V2.00 B2112,2013-07-17 03:04:00,
2013-07-16 20:09:00,74.7,56.4,29.70,West,267,0.0,0.0,53,0.00,,,0.00,LWC V2.00 B2112,2013-07-17 03:09:00,
2013-07-16 20:14:00,74.2,57.5,29.71,West,267,0.0,0.0,56,0.00,,,0.00,LWC V2.00 B2112,2013-07-17 03:14:00,
2013-07-16 20:19:00,74.0,60.1,29.71,West,267,0.0,0.0,62,0.00,,,0.00,LWC V2.00 B2112,2013-07-17 03:19:00,
2013-07-16 20:24:00,73.7,57.5,29.71,West,267,0.0,0.0,57,0.00,,,0.00,LWC V2.00 B2112,2013-07-17 03:24:00,
2013-07-16 20:29:00,73.5,59.2,29.71,West,267,0.0,0.0,61,0.00,,,0.00,LWC V2.00 B2112,2013-07-17 03:29:00,
2013-07-16 20:34:00,73.3,60.4,29.71,West,267,0.0,0.0,64,0.00,,,0.00,LWC V2.00 B2112,2013-07-17 03:34:00,
2013-07-16 20:39:00,72.5,58.7,29.71,West,267,0.0,0.0,62,0.00,,,0.00,LWC V2.00 B2112,2013-07-17 03:39:00,
2013-07-16 20:44:00,72.7,57.5,29.74,West,267,0.0,0.0,59,0.00,,,0.00,LWC V2.00 B2112,2013-07-17 03:44:00,
2013-07-16 20:49:00,72.5,57.8,29.74,West,267,0.0,0.0,60,0.00,,,0.00,LWC V2.00 B2112,2013-07-17 03:49:00,
2013-07-16 20:54:00,72.5,56.9,29.74,West,267,0.0,0.0,58,0.00,,,0.00,LWC V2.00 B2112,2013-07-17 03:54:00,
2013-07-16 20:59:00,72.5,59.6,29.74,West,267,0.0,0.0,64,0.00,,,0.00,LWC V2.00 B2112,2013-07-17 03:59:00,
2013-07-16 21:01:00,72.5,60.0,29.74,West,267,0.0,1.0,65,0.00,,,0.00,LWC V2.00 B2112,2013-07-17 04:01:00,
2013-07-16 21:06:00,72.7,58.0,29.74,West,267,0.0,0.0,60,0.00,,,0.00,LWC V2.00 B2112,2013-07-17 04:06:00,
2013-07-16 21:11:00,73.2,56.0,29.74,WNW,284,4.0,7.0,55,0.00,,,0.00,LWC V2.00 B2112,2013-07-17 04:11:00,
2013-07-16 21:16:00,76.5,41.9,29.71,NNW,344,4.0,9.0,29,0.00,,,0.00,LWC V2.00 B2112,2013-07-17 04:16:00,
2013-07-16 21:21:00,77.9,46.5,29.71,North,359,0.0,6.0,33,0.00,,,0.00,LWC V2.00 B2112,2013-07-17 04:21:00,
2013-07-16 21:26:00,78.1,48.2,29.71,North,359,0.0,4.0,35,0.00,,,0.00,LWC V2.00 B2112,2013-07-17 04:26:00,
2013-07-16 21:31:00,78.3,46.0,29.70,NNW,347,2.0,6.0,32,0.00,,,0.00,LWC V2.00 B2112,2013-07-17 04:31:00,
2013-07-16 21:36:00,79.0,42.1,29.70,West,277,1.0,8.0,27,0.00,,,0.00,LWC V2.00 B2112,2013-07-17 04:36:00,
2013-07-16 21:41:00,79.2,45.1,29.70,West,272,0.0,0.0,30,0.00,,,0.00,LWC V2.00 B2112,2013-07-17 04:41:00,
2013-07-16 21:46:00,78.8,46.4,29.72,SW,220,0.0,2.0,32,0.00,,,0.00,LWC V2.00 B2112,2013-07-17 04:46:00,
2013-07-16 21:51:00,78.5,46.2,29.72,ENE,65,0.0,1.0,32,0.00,,,0.00,LWC V2.00 B2112,2013-07-17 04:51:00,
2013-07-16 21:56:00,77.7,49.3,29.72,ENE,65,0.0,0.0,37,0.00,,,0.00,LWC V2.00 B2112,2013-07-17 04:56:00,
2013-07-16 21:58:00,77.6,48.5,29.72,ENE,65,0.0,1.0,36,0.00,,,0.00,LWC V2.00 B2112,2013-07-17 04:58:00,
2013-07-16 22:03:00,76.7,50.5,29.72,NW,313,2.0,4.0,40,0.00,,,0.00,LWC V2.00 B2112,2013-07-17 05:03:00,
2013-07-16 22:08:00,76.3,48.1,29.72,WNW,301,4.0,6.0,37,0.00,,,0.00,LWC V2.00 B2112,2013-07-17 05:08:00,
2013-07-16 22:13:00,76.1,47.2,29.72,WNW,302,0.0,0.0,36,0.00,,,0.00,LWC V2.00 B2112,2013-07-17 05:13:00,
2013-07-16 22:18:00,76.0,46.4,29.71,WNW,302,0.0,0.0,35,0.00,,,0.00,LWC V2.00 B2112,2013-07-17 05:18:00,
2013-07-16 22:23:00,74.9,49.6,29.71,WNW,302,0.0,0.0,41,0.00,,,0.00,LWC V2.00 B2112,2013-07-17 05:23:00,
2013-07-16 22:28:00,73.9,50.0,29.71,WNW,302,0.0,0.0,43,0.00,,,0.00,LWC V2.00 B2112,2013-07-17 05:28:00,
2013-07-16 22:33:00,73.2,47.4,29.71,WNW,302,0.0,0.0,40,0.00,,,0.00,LWC V2.00 B2112,2013-07-17 05:33:00,
2013-07-16 22:38:00,72.5,50.5,29.71,WNW,302,0.0,4.0,46,0.00,,,0.00,LWC V2.00 B2112,2013-07-17 05:38:00,
2013-07-16 22:43:00,71.6,50.9,29.71,WNW,294,2.0,6.0,48,0.00,,,0.00,LWC V2.00 B2112,2013-07-17 05:43:00,
2013-07-16 22:48:00,72.7,48.9,29.71,WNW,291,4.0,6.0,43,0.00,,,0.00,LWC V2.00 B2112,2013-07-17 05:48:00,
2013-07-16 22:53:00,72.5,50.5,29.71,WNW,291,0.0,0.0,46,0.00,,,0.00,LWC V2.00 B2112,2013-07-17 05:53:00,
2013-07-16 22:58:00,71.8,52.7,29.71,WNW,291,2.0,2.0,51,0.00,,,0.00,LWC V2.00 B2112,2013-07-17 05:58:00,
2013-07-16 23:03:00,71.1,50.4,29.72,WNW,292,2.0,6.0,48,0.00,,,0.00,LWC V2.00 B2112,2013-07-17 06:03:00,
2013-07-16 23:08:00,71.5,49.0,29.72,WNW,292,4.0,6.0,45,0.00,,,0.00,LWC V2.00 B2112,2013-07-17 06:08:00,
2013-07-16 23:13:00,71.5,50.8,29.72,WNW,296,0.0,6.0,48,0.00,,,0.00,LWC V2.00 B2112,2013-07-17 06:13:00,
2013-07-16 23:18:00,70.9,49.1,29.72,WNW,296,6.0,6.0,46,0.00,,,0.00,LWC V2.00 B2112,2013-07-17 06:18:00,
2013-07-16 23:23:00,71.5,47.2,29.72,WNW,299,1.0,4.0,42,0.00,,,0.00,LWC V2.00 B2112,2013-07-17 06:23:00,
2013-07-16 23:28:00,70.9,51.3,29.72,West,280,4.0,7.0,50,0.00,,,0.00,LWC V2.00 B2112,2013-07-17 06:28:00,
2013-07-16 23:33:00,70.6,49.4,29.72,WNW,284,2.0,4.0,47,0.00,,,0.00,LWC V2.00 B2112,2013-07-17 06:33:00,
2013-07-16 23:38:00,70.4,48.0,29.72,WNW,296,4.0,7.0,45,0.00,,,0.00,LWC V2.00 B2112,2013-07-17 06:38:00,
2013-07-16 23:43:00,70.1,48.3,29.72,WNW,291,2.0,8.0,46,0.00,,,0.00,LWC V2.00 B2112,2013-07-17 06:43:00,
2013-07-16 23:48:00,70.1,48.3,29.73,WNW,291,4.0,4.0,46,0.00,,,0.00,LWC V2.00 B2112,2013-07-17 06:48:00,
2013-07-16 23:53:00,69.8,50.3,29.73,WNW,294,0.0,0.0,50,0.00,,,0.00,LWC V2.00 B2112,2013-07-17 06:53:00,
2013-07-16 23:58:00,69.3,50.4,29.73,WNW,294,0.0,0.0,51,0.00,,,0.00,LWC V2.00 B2112,2013-07-17 06:58:00,